Hanover, MD (21076)

8:11 PM EDT on August 28, 2016 (GMT -0400)
Arundel Mills Mall | | Change Station

Elev 377 ft 39.16 °N, 76.72 °W | Updated 1 minute ago

Partly Cloudy
Partly Cloudy
78.4 °F
Feels Like 80 °F
N
2.7
Wind Variable Wind from East

Today
High -- | Low -- °F
--% Chance of Precip.
Yesterday
High -- | Low -- °F
Precip. -- in
Pressure 30.14 in
Visibility 10.0 miles
Clouds Few 6000 ft
Few 25000 ft
Heat Index 80 °F
Dew Point 63 °F
Humidity 60%
Rainfall 0.00 in
Snow Depth Not available.
6:32 AM 7:42 PM
Waning Crescent, 12% visible
METAR KBWI 282354Z 10006KT 10SM FEW060 FEW250 27/19 A3015 RMK AO2 SLP206 T02670189 10311 20267 56006
Pressure 30.14 in
Visibility 10.0 miles
Clouds Few 6000 ft
Few 25000 ft
Heat Index 80 °F
Dew Point 63 °F
Humidity 60%
Rainfall 0.00 in
Snow Depth Not available.
6:32 AM 7:42 PM
Waning Crescent, 12% visible
METAR KBWI 282354Z 10006KT 10SM FEW060 FEW250 27/19 A3015 RMK AO2 SLP206 T02670189 10311 20267 56006

10-Day Weather Forecast

Almanac

Astronomy

Aug. 28, 2016 Rise Set
Actual Time
Civil Twilight
Nautical Twilight
Astronomical Twilight
Moon
Length of Visible Light
Length of Day
Tomorrow will be .
, % of the Moon is Illuminated

Today's Extremes

State Highs State Lows

Community

WunderPhotos

Upload Photos

1,935,728 photos uploaded!

WunderBlog® & News

Nearby

Air Quality

  Air Quality AQ Index Pollutant
Not available.

Snow Depth

Station Depth Elevation

Earthquake Activity

City Distance Mag. Time & Date
Minimum magnitude displayed is 2.5.

Coastal Water Temperatures

Place Temperature

Stations

Nearby Weather Stations

Station Location Temp. Windchill Dew Point Humidity Wind Precip. Elev Updated Type
                   

Watches & Warnings

There are currently no watches in effect.